Time;durP1;ratioP1;P1;durP2;ratioP2;P2;SDS_P1;SDS_P2;PMS_P1;PMS_P2;Temp;Humidity;BMP_temperature;BMP_pressure;BME280_temperature;BME280_humidity;BME280_pressure;Samples;Min_cycle;Max_cycle;Signal;HPM_P1;HPM_P2
2023/12/09 00:00:59;;;;;;;0.70;0.70;;;2.30;99.90;;;;;;4430202;32;20073;-60
2023/12/09 00:03:25;;;;;;;1.05;0.82;;;2.30;99.90;;;;;;4424652;32;20065;-60
2023/12/09 00:05:50;;;;;;;1.65;1.40;;;2.30;99.90;;;;;;4428010;32;20098;-60
2023/12/09 00:08:16;;;;;;;5.28;1.35;;;2.30;99.90;;;;;;4425986;32;20335;-58
2023/12/09 00:10:41;;;;;;;1.05;1.00;;;2.30;99.90;;;;;;4429023;32;20070;-59
2023/12/09 00:13:06;;;;;;;3.40;0.95;;;2.40;99.90;;;;;;4427051;32;20530;-59
2023/12/09 00:15:32;;;;;;;0.37;0.37;;;2.40;99.90;;;;;;4427977;32;20469;-57
2023/12/09 00:17:57;;;;;;;3.30;1.37;;;2.50;99.90;;;;;;4427360;32;20065;-60
2023/12/09 00:20:23;;;;;;;0.50;0.50;;;2.30;99.90;;;;;;4430944;32;20073;-59
2023/12/09 00:22:48;;;;;;;0.75;0.73;;;2.30;99.90;;;;;;4426975;32;20082;-60
2023/12/09 00:25:14;;;;;;;1.42;1.33;;;2.30;99.90;;;;;;4432539;32;20081;-59
2023/12/09 00:27:39;;;;;;;0.60;0.60;;;2.30;99.90;;;;;;4431512;32;20109;-59
2023/12/09 00:30:07;;;;;;;1.62;0.93;;;2.30;99.90;;;;;;4426587;32;20501;-58
2023/12/09 00:32:32;;;;;;;1.33;1.02;;;2.30;99.90;;;;;;4425163;32;20085;-59
2023/12/09 00:34:59;;;;;;;0.50;0.50;;;2.40;99.90;;;;;;4424206;32;20081;-59
2023/12/09 00:37:24;;;;;;;0.57;0.57;;;2.40;99.90;;;;;;4430748;32;20116;-59
2023/12/09 00:39:50;;;;;;;0.55;0.55;;;2.30;99.90;;;;;;4428832;32;20064;-59
2023/12/09 00:42:15;;;;;;;0.65;0.65;;;2.20;99.90;;;;;;4427869;32;20069;-62
2023/12/09 00:44:41;;;;;;;0.98;0.85;;;2.30;99.90;;;;;;4414858;32;20073;-61
2023/12/09 00:47:06;;;;;;;0.52;0.52;;;2.30;99.90;;;;;;4430727;32;20508;-60
2023/12/09 00:49:32;;;;;;;0.57;0.57;;;2.30;99.90;;;;;;4430761;32;20081;-62
2023/12/09 00:51:57;;;;;;;2.40;1.62;;;2.30;99.90;;;;;;4430048;32;20203;-61
2023/12/09 00:54:22;;;;;;;0.65;0.65;;;2.40;99.90;;;;;;4432603;32;20085;-61
2023/12/09 00:56:48;;;;;;;0.65;0.65;;;2.40;99.90;;;;;;4430101;32;20512;-58
2023/12/09 00:59:13;;;;;;;0.80;0.60;;;2.40;99.90;;;;;;4430007;32;20557;-59
2023/12/09 01:01:39;;;;;;;2.85;1.52;;;2.40;99.90;;;;;;4431159;32;20065;-58
2023/12/09 01:04:05;;;;;;;0.52;0.52;;;2.40;99.90;;;;;;4431438;32;20069;-58
2023/12/09 01:06:31;;;;;;;1.73;1.23;;;2.30;99.90;;;;;;4415374;32;20561;-59
2023/12/09 01:08:56;;;;;;;1.08;1.08;;;2.30;99.90;;;;;;4432884;32;20074;-61
2023/12/09 01:11:23;;;;;;;2.58;1.15;;;2.40;99.90;;;;;;4430919;32;20054;-61
2023/12/09 01:13:49;;;;;;;0.70;0.70;;;2.40;99.90;;;;;;4416019;32;20065;-61
2023/12/09 01:16:14;;;;;;;0.75;0.75;;;2.50;99.90;;;;;;4429574;32;20085;-61
2023/12/09 01:18:40;;;;;;;2.87;1.60;;;2.50;99.90;;;;;;4435141;32;20065;-61
2023/12/09 01:21:05;;;;;;;3.30;1.58;;;2.50;99.90;;;;;;4430206;32;20081;-61
2023/12/09 01:23:31;;;;;;;3.87;1.33;;;2.50;99.90;;;;;;4430566;32;20073;-61
2023/12/09 01:25:56;;;;;;;0.52;0.52;;;2.60;99.90;;;;;;4432692;32;20061;-60
2023/12/09 01:28:21;;;;;;;4.30;1.73;;;2.60;99.90;;;;;;4433928;32;20104;-59
2023/12/09 01:30:47;;;;;;;0.73;0.73;;;2.60;99.90;;;;;;4434518;32;20406;-59
2023/12/09 01:33:12;;;;;;;1.60;1.25;;;2.60;99.90;;;;;;4415992;32;20065;-61
2023/12/09 01:35:38;;;;;;;3.85;2.28;;;2.50;99.90;;;;;;4437412;32;20057;-58
2023/12/09 01:38:03;;;;;;;1.05;1.02;;;2.50;99.90;;;;;;4430635;32;20082;-59
2023/12/09 01:40:29;;;;;;;0.88;0.88;;;2.40;99.90;;;;;;4430978;32;20692;-61
2023/12/09 01:42:54;;;;;;;0.68;0.65;;;2.50;99.90;;;;;;4429657;32;20073;-61
2023/12/09 01:45:20;;;;;;;12.65;1.45;;;2.60;99.90;;;;;;4429444;32;20077;-61
2023/12/09 01:47:47;;;;;;;0.55;0.55;;;2.60;99.90;;;;;;4430262;32;20073;-61
2023/12/09 01:50:13;;;;;;;2.30;1.42;;;2.60;99.90;;;;;;4416231;32;20117;-60
2023/12/09 01:52:39;;;;;;;1.37;1.08;;;2.60;99.90;;;;;;4429573;32;20085;-61
2023/12/09 01:55:05;;;;;;;0.57;0.57;;;2.60;99.90;;;;;;4429962;32;20142;-58
2023/12/09 01:57:31;;;;;;;3.33;1.87;;;2.60;99.90;;;;;;4429833;32;20417;-60
2023/12/09 01:59:56;;;;;;;4.65;1.95;;;2.50;99.90;;;;;;4427745;32;20082;-61
2023/12/09 02:02:22;;;;;;;1.02;1.02;;;2.50;99.90;;;;;;4428494;32;20528;-61
2023/12/09 02:04:49;;;;;;;1.10;1.02;;;2.40;99.90;;;;;;4430478;32;20076;-61
2023/12/09 02:07:15;;;;;;;0.95;0.90;;;2.40;99.90;;;;;;4413150;32;20081;-60
2023/12/09 02:09:40;;;;;;;0.52;0.52;;;2.30;99.90;;;;;;4429524;32;20057;-59
2023/12/09 02:12:14;;;;;;;0.75;0.75;;;2.50;99.90;;;;;;4429342;32;20112;-60
2023/12/09 02:15:07;;;;;;;8.07;1.73;;;2.50;99.90;;;;;;4428815;32;20061;-62
2023/12/09 02:17:40;;;;;;;0.57;0.57;;;2.40;99.90;;;;;;4428738;32;20094;-59
2023/12/09 02:20:07;;;;;;;1.05;1.00;;;2.50;99.90;;;;;;4430891;32;20173;-58
2023/12/09 02:22:33;;;;;;;1.65;1.23;;;2.60;99.90;;;;;;4413969;32;20074;-61
2023/12/09 02:24:58;;;;;;;1.10;1.10;;;2.50;99.90;;;;;;4427706;32;20069;-60
2023/12/09 02:27:31;;;;;;;0.70;0.70;;;2.50;99.90;;;;;;4428842;32;20082;-61
2023/12/09 02:30:18;;;;;;;1.02;1.02;;;2.50;99.90;;;;;;4428901;32;20073;-62
2023/12/09 02:32:44;;;;;;;0.57;0.57;;;2.50;99.90;;;;;;4415979;32;20481;-61
2023/12/09 02:35:11;;;;;;;0.70;0.70;;;2.50;99.90;;;;;;4417813;32;20128;-61
2023/12/09 02:37:39;;;;;;;1.20;1.10;;;2.50;99.90;;;;;;4431499;32;20876;-61
2023/12/09 02:40:09;;;;;;;0.68;0.68;;;2.40;99.90;;;;;;4415083;32;20077;-60
2023/12/09 02:42:37;;;;;;;0.62;0.62;;;2.40;99.90;;;;;;4425565;32;20537;-61
2023/12/09 02:45:04;;;;;;;2.12;0.88;;;2.60;99.90;;;;;;4428614;32;20062;-62
2023/12/09 02:47:30;;;;;;;0.75;0.75;;;2.60;99.90;;;;;;4425157;32;20090;-61
2023/12/09 02:49:55;;;;;;;0.80;0.80;;;2.70;99.90;;;;;;4428208;32;20774;-59
2023/12/09 02:52:21;;;;;;;10.02;2.30;;;2.70;99.90;;;;;;4428666;32;20084;-57
2023/12/09 02:54:46;;;;;;;1.05;0.95;;;2.80;99.90;;;;;;4430903;32;20082;-60
2023/12/09 02:57:11;;;;;;;4.32;1.58;;;2.80;99.90;;;;;;4429526;32;20782;-60
2023/12/09 02:59:37;;;;;;;0.80;0.80;;;2.80;99.90;;;;;;4428964;32;20069;-59
2023/12/09 03:02:03;;;;;;;2.83;1.35;;;2.90;99.90;;;;;;4426237;32;20082;-59
2023/12/09 03:04:28;;;;;;;1.27;1.17;;;2.90;99.90;;;;;;4429156;32;20291;-58
2023/12/09 03:06:54;;;;;;;3.20;0.88;;;2.80;99.90;;;;;;4426151;32;20077;-58
2023/12/09 03:09:19;;;;;;;0.70;0.70;;;2.80;99.90;;;;;;4429186;32;20422;-58
2023/12/09 03:11:44;;;;;;;6.40;1.83;;;2.80;99.90;;;;;;4428244;32;20074;-59
2023/12/09 03:14:10;;;;;;;0.85;0.80;;;2.70;99.90;;;;;;4428032;32;20077;-58
2023/12/09 03:16:37;;;;;;;2.65;1.27;;;2.60;99.90;;;;;;4428769;32;20501;-58
2023/12/09 03:19:03;;;;;;;1.25;1.20;;;2.60;99.90;;;;;;4428328;32;20077;-59
2023/12/09 03:21:28;;;;;;;0.65;0.65;;;2.60;99.90;;;;;;4433814;32;20089;-58
2023/12/09 03:23:54;;;;;;;0.75;0.75;;;2.60;99.90;;;;;;4428208;32;20073;-58
2023/12/09 03:26:20;;;;;;;1.95;1.45;;;2.70;99.90;;;;;;4428493;32;20117;-59
2023/12/09 03:28:45;;;;;;;0.50;0.50;;;2.80;99.90;;;;;;4425034;32;20183;-59
2023/12/09 03:31:13;;;;;;;1.52;1.25;;;2.80;99.90;;;;;;4425958;32;20184;-58
2023/12/09 03:33:39;;;;;;;11.30;2.10;;;2.90;99.90;;;;;;4413149;32;20082;-58
2023/12/09 03:36:07;;;;;;;0.57;0.57;;;2.80;99.90;;;;;;4416247;32;20113;-58
2023/12/09 03:38:32;;;;;;;1.37;1.25;;;2.80;99.90;;;;;;4399954;32;20085;-59
2023/12/09 03:40:58;;;;;;;1.48;1.33;;;2.80;99.90;;;;;;4426861;32;20422;-58
2023/12/09 03:43:23;;;;;;;1.12;0.98;;;2.80;99.90;;;;;;4423671;32;21725;-58
2023/12/09 03:45:49;;;;;;;1.33;1.15;;;2.70;99.90;;;;;;4427473;32;20053;-58
2023/12/09 03:48:14;;;;;;;0.73;0.73;;;2.70;99.90;;;;;;4413454;32;20061;-58
2023/12/09 03:50:40;;;;;;;2.72;1.25;;;2.70;99.90;;;;;;4428130;32;20070;-58
2023/12/09 03:53:05;;;;;;;1.05;1.02;;;2.70;99.90;;;;;;4428826;32;20525;-57
2023/12/09 03:55:31;;;;;;;1.73;1.55;;;2.60;99.90;;;;;;4428463;32;20134;-59
2023/12/09 03:57:56;;;;;;;2.70;1.77;;;2.70;99.90;;;;;;4427429;32;20085;-59
2023/12/09 04:00:23;;;;;;;1.20;0.80;;;2.70;99.90;;;;;;4427434;32;20686;-59
2023/12/09 04:02:48;;;;;;;5.47;2.15;;;2.70;99.90;;;;;;4431406;32;20058;-60
2023/12/09 04:05:14;;;;;;;0.93;0.90;;;2.70;99.90;;;;;;4417686;32;20128;-60
2023/12/09 04:07:40;;;;;;;5.90;1.30;;;2.70;99.90;;;;;;4417618;32;20089;-60
2023/12/09 04:10:06;;;;;;;7.18;1.50;;;2.70;99.90;;;;;;4431039;32;20085;-60
2023/12/09 04:12:32;;;;;;;1.17;1.10;;;2.80;99.90;;;;;;4427626;32;20121;-59
2023/12/09 04:14:57;;;;;;;1.02;0.55;;;2.70;99.90;;;;;;4428240;32;20118;-60
2023/12/09 04:17:23;;;;;;;1.27;1.02;;;2.70;99.90;;;;;;4418416;32;20093;-59
2023/12/09 04:19:48;;;;;;;1.87;1.12;;;2.70;99.90;;;;;;4431520;32;20580;-60
2023/12/09 04:22:14;;;;;;;1.33;1.20;;;2.60;99.90;;;;;;4431018;32;20069;-59
2023/12/09 04:24:40;;;;;;;2.03;1.25;;;2.60;99.90;;;;;;4430315;32;20518;-60
2023/12/09 04:27:05;;;;;;;1.98;1.33;;;2.70;99.90;;;;;;4419895;32;20116;-59
2023/12/09 04:29:31;;;;;;;2.47;2.05;;;2.70;99.90;;;;;;4429667;32;20481;-59
2023/12/09 04:31:56;;;;;;;1.12;1.02;;;2.80;99.90;;;;;;4415761;32;20131;-60
2023/12/09 04:34:22;;;;;;;0.57;0.57;;;2.80;99.90;;;;;;4417816;32;20522;-60
2023/12/09 04:36:48;;;;;;;0.70;0.70;;;2.80;99.90;;;;;;4428986;32;20141;-60
2023/12/09 04:39:13;;;;;;;1.50;1.10;;;2.90;99.90;;;;;;4431150;32;20061;-59
2023/12/09 04:41:40;;;;;;;3.17;2.22;;;2.90;99.90;;;;;;4429261;32;20082;-59
2023/12/09 04:44:05;;;;;;;5.15;1.80;;;3.00;99.90;;;;;;4415484;32;20563;-60
2023/12/09 04:46:31;;;;;;;3.03;2.55;;;3.00;99.90;;;;;;4430228;32;20134;-58
2023/12/09 04:48:57;;;;;;;1.33;1.17;;;2.90;99.90;;;;;;4429766;32;20077;-59
2023/12/09 04:51:23;;;;;;;3.87;0.77;;;3.00;99.90;;;;;;4434460;32;20140;-60
2023/12/09 04:53:48;;;;;;;32.97;2.08;;;3.00;99.90;;;;;;4433458;32;20062;-60
2023/12/09 04:56:14;;;;;;;0.88;0.88;;;2.90;99.90;;;;;;4431207;32;20112;-60
2023/12/09 04:58:40;;;;;;;1.85;1.33;;;2.90;99.90;;;;;;4430692;32;20611;-60
2023/12/09 05:01:05;;;;;;;0.80;0.80;;;2.80;99.90;;;;;;4428028;32;20062;-58
2023/12/09 05:03:31;;;;;;;1.83;1.55;;;2.90;99.90;;;;;;4430762;32;20521;-59
2023/12/09 05:05:56;;;;;;;2.25;1.62;;;2.80;99.90;;;;;;4419602;32;20406;-60
2023/12/09 05:08:22;;;;;;;1.10;1.08;;;2.80;99.90;;;;;;4430264;32;20089;-59
2023/12/09 05:10:48;;;;;;;0.55;0.55;;;2.80;99.90;;;;;;4429330;32;20065;-60
2023/12/09 05:13:13;;;;;;;2.65;1.23;;;2.80;99.90;;;;;;4429776;32;20058;-59
2023/12/09 05:15:39;;;;;;;3.40;1.60;;;2.90;99.90;;;;;;4429145;32;20093;-59
2023/12/09 05:18:04;;;;;;;0.82;0.82;;;2.80;99.90;;;;;;4427389;32;20074;-60
2023/12/09 05:20:30;;;;;;;2.60;2.05;;;2.80;99.90;;;;;;4430479;32;20112;-59
2023/12/09 05:22:55;;;;;;;0.95;0.95;;;2.80;99.90;;;;;;4434022;32;20065;-59
2023/12/09 05:25:21;;;;;;;1.05;1.05;;;2.80;99.90;;;;;;4430767;32;20081;-57
2023/12/09 05:27:47;;;;;;;0.90;0.90;;;2.80;99.90;;;;;;4431732;32;20497;-59
2023/12/09 05:30:12;;;;;;;1.55;1.30;;;2.80;99.90;;;;;;4429194;32;20072;-58
2023/12/09 05:32:38;;;;;;;1.40;1.25;;;2.70;99.90;;;;;;4429893;32;20077;-60
2023/12/09 05:35:04;;;;;;;0.60;0.60;;;2.70;99.90;;;;;;4428326;32;20124;-59
2023/12/09 05:37:29;;;;;;;3.20;1.90;;;2.70;99.90;;;;;;4427170;32;20053;-59
2023/12/09 05:39:54;;;;;;;1.17;0.90;;;2.70;99.90;;;;;;4431148;32;20105;-60
2023/12/09 05:42:20;;;;;;;0.90;0.90;;;2.80;99.90;;;;;;4429027;32;20483;-58
2023/12/09 05:44:45;;;;;;;6.25;2.47;;;2.80;99.90;;;;;;4430155;32;20093;-60
2023/12/09 05:47:11;;;;;;;7.82;1.95;;;2.80;99.90;;;;;;4431719;32;20122;-60
2023/12/09 05:49:36;;;;;;;0.95;0.95;;;2.80;99.90;;;;;;4430461;32;20069;-59
2023/12/09 05:52:02;;;;;;;3.03;0.95;;;2.80;99.90;;;;;;4431284;32;20121;-58
2023/12/09 05:54:28;;;;;;;2.33;1.95;;;2.80;99.90;;;;;;4431181;32;20064;-60
2023/12/09 05:56:53;;;;;;;2.08;1.85;;;2.80;99.90;;;;;;4431932;32;20069;-58
2023/12/09 05:59:19;;;;;;;4.55;2.28;;;2.80;99.90;;;;;;4430979;32;20081;-60
2023/12/09 06:01:44;;;;;;;2.83;1.00;;;2.80;99.90;;;;;;4415917;32;20077;-60
2023/12/09 06:04:10;;;;;;;3.72;1.45;;;2.90;99.90;;;;;;4415529;32;20195;-60
2023/12/09 06:06:35;;;;;;;4.37;1.33;;;2.90;99.90;;;;;;4433154;32;20082;-59
2023/12/09 06:09:01;;;;;;;0.93;0.93;;;2.90;99.90;;;;;;4431796;32;20073;-60
2023/12/09 06:11:26;;;;;;;0.82;0.82;;;2.90;99.90;;;;;;4415730;32;20469;-60
2023/12/09 06:13:52;;;;;;;1.87;1.47;;;2.80;99.90;;;;;;4430410;32;20073;-60
2023/12/09 06:16:18;;;;;;;1.65;1.30;;;2.90;99.90;;;;;;4430091;32;20064;-60
2023/12/09 06:18:44;;;;;;;1.52;1.15;;;2.90;99.90;;;;;;4428450;32;20090;-60
2023/12/09 06:21:19;;;;;;;1.73;1.62;;;2.80;99.90;;;;;;4417032;32;20079;-60
2023/12/09 06:23:44;;;;;;;0.80;0.80;;;2.90;99.90;;;;;;4427733;32;20553;-59
2023/12/09 06:26:10;;;;;;;1.30;1.05;;;2.90;99.90;;;;;;4430408;32;20064;-60
2023/12/09 06:28:36;;;;;;;0.80;0.80;;;3.00;99.90;;;;;;4426040;32;20124;-59
2023/12/09 06:31:02;;;;;;;0.65;0.65;;;2.90;99.90;;;;;;4408917;32;20217;-60
2023/12/09 06:33:27;;;;;;;5.47;2.15;;;2.90;99.90;;;;;;4424679;32;20065;-57
2023/12/09 06:35:53;;;;;;;1.17;1.15;;;2.90;99.90;;;;;;4427514;32;20073;-60
2023/12/09 06:38:18;;;;;;;2.08;1.87;;;2.90;99.90;;;;;;4427181;32;20057;-60
2023/12/09 06:40:44;;;;;;;1.48;1.35;;;2.90;99.90;;;;;;4427292;32;20116;-60
2023/12/09 06:43:09;;;;;;;1.00;1.00;;;2.90;99.90;;;;;;4424294;32;20102;-60
2023/12/09 06:45:35;;;;;;;2.08;1.12;;;2.90;99.90;;;;;;4428204;32;20116;-59
2023/12/09 06:48:00;;;;;;;1.20;1.10;;;3.00;99.90;;;;;;4423546;32;20116;-59
2023/12/09 06:50:25;;;;;;;1.45;1.20;;;3.00;99.90;;;;;;4428757;32;20492;-60
2023/12/09 06:52:51;;;;;;;6.03;1.95;;;3.10;99.90;;;;;;4425781;32;20413;-61
2023/12/09 06:55:16;;;;;;;2.05;1.00;;;3.10;99.90;;;;;;4428829;32;20057;-60
2023/12/09 06:57:42;;;;;;;3.15;1.27;;;3.10;99.90;;;;;;4429140;32;20112;-60
2023/12/09 07:02:36;;;;;;;3.60;1.52;;;3.20;99.90;;;;;;4427540;32;20112;-60
2023/12/09 07:05:01;;;;;;;4.07;2.70;;;3.30;99.90;;;;;;4433016;32;20157;-59
2023/12/09 07:07:26;;;;;;;0.47;0.47;;;3.30;99.90;;;;;;4428164;32;20494;-59
2023/12/09 07:09:54;;;;;;;0.95;0.93;;;3.30;99.90;;;;;;4427017;32;20113;-59
2023/12/09 07:12:20;;;;;;;1.80;0.82;;;3.40;99.90;;;;;;4427806;32;20061;-59
2023/12/09 07:14:45;;;;;;;12.85;1.60;;;3.30;99.90;;;;;;4427902;32;20082;-59
2023/12/09 07:17:11;;;;;;;0.60;0.60;;;3.30;99.90;;;;;;4428234;32;20081;-58
2023/12/09 07:19:36;;;;;;;0.95;0.95;;;3.30;99.90;;;;;;4431232;32;20447;-60
2023/12/09 07:22:03;;;;;;;0.88;0.88;;;3.20;99.90;;;;;;4429726;32;20065;-59
2023/12/09 07:24:28;;;;;;;3.97;2.00;;;3.30;99.90;;;;;;4427101;32;20064;-59
2023/12/09 07:26:54;;;;;;;3.60;1.27;;;3.20;99.90;;;;;;4426662;32;20434;-60
2023/12/09 07:29:19;;;;;;;1.40;1.27;;;3.20;99.90;;;;;;4428311;32;21145;-60
2023/12/09 07:31:45;;;;;;;3.67;2.30;;;3.30;99.90;;;;;;4426358;32;20624;-59
2023/12/09 07:34:16;;;;;;;7.28;1.87;;;3.30;99.90;;;;;;4428941;32;20068;-59
2023/12/09 07:36:42;;;;;;;;;;;3.40;99.90;;;;;;4426985;32;20078;-59
2023/12/09 07:39:08;;;;;;;1.52;1.23;;;3.30;99.90;;;;;;4429123;32;19953;-58
2023/12/09 07:41:34;;;;;;;0.62;0.62;;;3.30;99.90;;;;;;4427093;32;20102;-59
2023/12/09 07:44:01;;;;;;;0.60;0.60;;;3.40;99.90;;;;;;4412686;32;20066;-60
2023/12/09 07:46:27;;;;;;;0.30;0.30;;;3.50;99.90;;;;;;4412298;32;21040;-59
2023/12/09 07:48:52;;;;;;;0.55;0.55;;;3.50;99.90;;;;;;4428862;32;20431;-59
2023/12/09 07:51:18;;;;;;;2.60;1.40;;;3.50;99.90;;;;;;4427209;32;20554;-59
2023/12/09 07:53:43;;;;;;;0.85;0.80;;;3.60;99.90;;;;;;4429695;32;20415;-58
2023/12/09 07:56:09;;;;;;;0.90;0.90;;;3.60;99.90;;;;;;4429380;32;20085;-60
2023/12/09 07:58:34;;;;;;;16.00;1.98;;;3.60;99.90;;;;;;4428238;32;20069;-59
2023/12/09 08:01:01;;;;;;;1.08;1.02;;;3.60;99.90;;;;;;4428579;32;20073;-59
2023/12/09 08:03:29;;;;;;;0.60;0.60;;;3.60;99.90;;;;;;4428575;32;20078;-59
2023/12/09 08:05:54;;;;;;;1.05;0.98;;;3.60;99.90;;;;;;4414962;32;20068;-60
2023/12/09 08:08:20;;;;;;;5.22;1.75;;;3.70;99.90;;;;;;4427690;32;20091;-60
2023/12/09 08:10:45;;;;;;;0.70;0.70;;;3.70;99.90;;;;;;4430136;32;20086;-60
2023/12/09 08:13:11;;;;;;;0.75;0.75;;;3.70;99.90;;;;;;4428911;32;20100;-59
2023/12/09 08:15:37;;;;;;;0.93;0.88;;;3.70;99.90;;;;;;4411431;32;20772;-59
2023/12/09 08:18:03;;;;;;;1.20;1.12;;;3.80;99.90;;;;;;4429217;32;20089;-59
2023/12/09 08:20:29;;;;;;;0.65;0.65;;;3.80;99.90;;;;;;4427659;32;20068;-59
2023/12/09 08:22:55;;;;;;;1.62;1.05;;;3.80;99.90;;;;;;4428171;32;20108;-59
2023/12/09 08:25:20;;;;;;;2.85;1.67;;;3.80;99.90;;;;;;4428880;32;20390;-59
2023/12/09 08:27:46;;;;;;;15.63;3.25;;;3.80;99.90;;;;;;4414744;32;20058;-59
2023/12/09 08:30:12;;;;;;;0.50;0.50;;;3.80;99.90;;;;;;4426084;32;20081;-60
2023/12/09 08:32:39;;;;;;;1.23;1.12;;;3.80;99.90;;;;;;4426855;32;20596;-59
2023/12/09 08:35:06;;;;;;;0.68;0.62;;;3.80;99.90;;;;;;4414906;32;20085;-59
2023/12/09 08:37:31;;;;;;;0.98;0.98;;;3.80;99.90;;;;;;4426478;32;20090;-59
2023/12/09 08:40:03;;;;;;;0.62;0.62;;;3.90;99.90;;;;;;4429762;32;20099;-59
2023/12/09 08:42:28;;;;;;;2.45;1.25;;;3.90;99.90;;;;;;4423448;32;20065;-58
2023/12/09 08:44:55;;;;;;;0.98;0.98;;;4.00;99.90;;;;;;4425484;32;20093;-59
2023/12/09 08:47:20;;;;;;;3.67;1.25;;;4.00;99.90;;;;;;4425810;32;20089;-59
2023/12/09 08:49:45;;;;;;;0.47;0.47;;;4.00;99.90;;;;;;4426635;32;20057;-60
2023/12/09 08:52:11;;;;;;;0.95;0.90;;;4.10;99.90;;;;;;4430114;32;20515;-58
2023/12/09 08:54:36;;;;;;;1.05;0.93;;;4.20;99.90;;;;;;4429240;32;20082;-59
2023/12/09 08:57:02;;;;;;;1.50;1.15;;;4.10;99.90;;;;;;4428525;32;20057;-59
2023/12/09 08:59:28;;;;;;;1.62;1.08;;;4.10;99.90;;;;;;4430956;32;20085;-60
2023/12/09 09:01:53;;;;;;;2.72;1.80;;;4.10;99.90;;;;;;4429420;32;20066;-60
2023/12/09 09:04:19;;;;;;;1.65;1.55;;;4.10;99.90;;;;;;4435299;32;20089;-59
2023/12/09 09:06:45;;;;;;;0.65;0.65;;;4.10;99.90;;;;;;4430198;32;20085;-60
2023/12/09 09:09:11;;;;;;;2.22;1.35;;;4.10;99.90;;;;;;4431595;32;20070;-58
2023/12/09 09:11:37;;;;;;;1.55;0.77;;;4.10;99.90;;;;;;4431311;32;20070;-59
2023/12/09 09:14:02;;;;;;;1.25;1.23;;;4.10;99.90;;;;;;4427831;32;20077;-59
2023/12/09 09:16:28;;;;;;;0.40;0.40;;;4.20;99.90;;;;;;4430398;32;20466;-60
2023/12/09 09:18:53;;;;;;;0.43;0.43;;;4.20;99.90;;;;;;4431831;32;20090;-60
2023/12/09 09:21:19;;;;;;;1.10;0.98;;;4.20;99.90;;;;;;4430159;32;20065;-60
2023/12/09 09:23:44;;;;;;;0.60;0.60;;;4.10;99.90;;;;;;4430194;32;20116;-58
2023/12/09 09:26:10;;;;;;;0.40;0.40;;;4.20;99.90;;;;;;4432317;32;20520;-59
2023/12/09 09:28:36;;;;;;;1.15;0.85;;;4.30;99.90;;;;;;4415236;32;20863;-59
2023/12/09 09:31:01;;;;;;;2.92;1.42;;;4.20;99.90;;;;;;4428923;32;20085;-59
2023/12/09 09:33:27;;;;;;;1.05;0.93;;;4.30;99.90;;;;;;4426616;32;20085;-60
2023/12/09 09:35:54;;;;;;;5.37;2.12;;;4.30;99.90;;;;;;4428971;32;20399;-60
2023/12/09 09:38:20;;;;;;;0.68;0.68;;;4.40;99.90;;;;;;4428787;32;20073;-59
2023/12/09 09:40:45;;;;;;;2.47;1.42;;;4.30;99.90;;;;;;4414109;32;20069;-60
2023/12/09 09:43:20;;;;;;;1.65;0.98;;;4.40;99.90;;;;;;4428179;32;20471;-58
2023/12/09 09:45:48;;;;;;;0.52;0.52;;;4.40;99.90;;;;;;4428434;32;20089;-59
2023/12/09 09:48:16;;;;;;;1.23;1.12;;;4.40;99.90;;;;;;4405028;32;20086;-59
2023/12/09 09:50:45;;;;;;;0.50;0.50;;;4.30;99.90;;;;;;4416248;32;20386;-60
2023/12/09 09:53:17;;;;;;;0.45;0.43;;;4.40;99.90;;;;;;4409152;32;20072;-59
2023/12/09 09:55:42;;;;;;;0.75;0.75;;;4.30;99.90;;;;;;4431843;32;20814;-59
2023/12/09 09:58:08;;;;;;;1.10;1.00;;;4.40;99.90;;;;;;4429375;32;20077;-60
2023/12/09 10:00:34;;;;;;;1.15;1.02;;;4.40;99.90;;;;;;4429916;32;20065;-59
2023/12/09 10:02:59;;;;;;;1.60;0.85;;;4.40;99.90;;;;;;4428553;32;20090;-60
2023/12/09 10:05:25;;;;;;;2.53;1.05;;;4.40;99.90;;;;;;4430435;32;20117;-58
2023/12/09 10:07:52;;;;;;;0.85;0.85;;;4.50;99.90;;;;;;4429284;32;20070;-60
2023/12/09 10:10:17;;;;;;;0.80;0.80;;;4.50;99.90;;;;;;4415895;32;20086;-59
2023/12/09 10:12:44;;;;;;;3.20;0.98;;;4.50;99.90;;;;;;4430144;32;20093;-60
2023/12/09 10:15:09;;;;;;;0.68;0.68;;;4.60;99.90;;;;;;4429271;32;20381;-59
2023/12/09 10:17:35;;;;;;;1.37;0.85;;;4.60;99.90;;;;;;4427768;32;20073;-59
2023/12/09 10:20:01;;;;;;;0.40;0.40;;;4.60;99.90;;;;;;4428212;32;20061;-60
2023/12/09 10:22:27;;;;;;;0.40;0.40;;;4.50;99.90;;;;;;4430715;32;20112;-59
2023/12/09 10:24:54;;;;;;;2.25;1.50;;;4.60;99.90;;;;;;4432025;32;20061;-60
2023/12/09 10:27:22;;;;;;;1.08;0.73;;;4.60;99.90;;;;;;4406178;32;20088;-60
2023/12/09 10:29:49;;;;;;;1.67;1.48;;;4.60;99.90;;;;;;4430115;32;20070;-58
2023/12/09 10:32:15;;;;;;;3.58;1.23;;;4.70;99.90;;;;;;4414143;32;20089;-60
2023/12/09 10:34:41;;;;;;;0.95;0.95;;;4.80;99.90;;;;;;4412878;32;20108;-59
2023/12/09 10:37:08;;;;;;;2.12;0.95;;;4.80;99.90;;;;;;4429031;32;20057;-60
2023/12/09 10:39:34;;;;;;;3.67;1.00;;;4.80;99.90;;;;;;4410239;32;20095;-60
2023/12/09 10:42:00;;;;;;;0.40;0.40;;;4.80;99.90;;;;;;4426599;32;20065;-60
2023/12/09 10:44:26;;;;;;;0.68;0.68;;;4.80;99.90;;;;;;4426682;32;20065;-59
2023/12/09 10:46:51;;;;;;;0.47;0.47;;;4.80;99.90;;;;;;4425247;32;20069;-60
2023/12/09 10:49:19;;;;;;;0.47;0.47;;;4.80;99.90;;;;;;4430560;32;20124;-60
2023/12/09 10:51:44;;;;;;;0.77;0.57;;;4.80;99.90;;;;;;4399521;32;20081;-56
2023/12/09 10:54:10;;;;;;;0.80;0.80;;;4.80;99.90;;;;;;4426727;32;20077;-60
2023/12/09 10:56:36;;;;;;;2.00;1.00;;;4.80;99.90;;;;;;4428820;32;20081;-59
2023/12/09 10:59:03;;;;;;;0.55;0.55;;;4.80;99.90;;;;;;4431829;32;20073;-60
2023/12/09 11:01:29;;;;;;;0.60;0.60;;;4.80;99.90;;;;;;4431167;32;20069;-60
2023/12/09 11:03:55;;;;;;;0.40;0.40;;;4.80;99.90;;;;;;4414469;32;20057;-57
2023/12/09 11:06:22;;;;;;;0.90;0.85;;;4.90;99.90;;;;;;4429974;32;20135;-60
2023/12/09 11:08:49;;;;;;;2.08;0.98;;;4.90;99.90;;;;;;4428230;32;20069;-60
2023/12/09 11:11:15;;;;;;;0.65;0.65;;;4.90;99.90;;;;;;4427821;32;20074;-60
2023/12/09 11:13:46;;;;;;;0.60;0.60;;;5.00;99.90;;;;;;4426977;32;20201;-60
2023/12/09 11:16:13;;;;;;;0.40;0.40;;;4.90;99.90;;;;;;4427561;32;20077;-60
2023/12/09 11:18:59;;;;;;;0.30;0.30;;;4.90;99.90;;;;;;4415935;32;20061;-60
2023/12/09 11:21:26;;;;;;;0.55;0.55;;;5.00;99.90;;;;;;4416677;32;20084;-58
2023/12/09 11:23:53;;;;;;;0.40;0.40;;;5.00;99.90;;;;;;4416374;32;21181;-60
2023/12/09 11:26:36;;;;;;;1.95;0.90;;;5.00;99.90;;;;;;4430512;32;20430;-59
2023/12/09 11:29:04;;;;;;;0.40;0.40;;;5.00;99.90;;;;;;4428772;32;20085;-59
2023/12/09 11:31:33;;;;;;;2.35;1.27;;;5.00;99.90;;;;;;4416097;32;20103;-59
2023/12/09 11:33:59;;;;;;;0.75;0.75;;;5.20;99.90;;;;;;4429393;32;20096;-59
2023/12/09 11:36:27;;;;;;;1.35;0.95;;;5.20;99.90;;;;;;4417851;32;20081;-59
2023/12/09 11:38:54;;;;;;;2.83;1.05;;;5.20;99.90;;;;;;4414268;32;20081;-61
2023/12/09 11:41:19;;;;;;;1.25;1.15;;;5.20;99.90;;;;;;4405299;32;20049;-59
2023/12/09 11:43:46;;;;;;;2.62;1.02;;;5.30;99.90;;;;;;4427937;32;20090;-61
2023/12/09 11:46:12;;;;;;;3.25;0.85;;;5.30;99.90;;;;;;4429383;32;20412;-59
2023/12/09 11:48:38;;;;;;;0.47;0.47;;;5.30;99.90;;;;;;4399910;32;20065;-60
2023/12/09 11:51:04;;;;;;;0.70;0.70;;;5.30;99.90;;;;;;4399774;32;78301;-59
2023/12/09 11:53:30;;;;;;;0.60;0.60;;;5.30;99.90;;;;;;4427828;32;20074;-59
2023/12/09 11:55:56;;;;;;;1.27;1.08;;;5.30;99.90;;;;;;4428789;32;20276;-59
2023/12/09 11:58:21;;;;;;;0.65;0.65;;;5.30;99.90;;;;;;4429018;32;20077;-59
2023/12/09 12:00:47;;;;;;;1.65;1.05;;;5.30;99.90;;;;;;4426651;32;20072;-59
2023/12/09 12:03:12;;;;;;;0.77;0.77;;;5.40;99.90;;;;;;4428894;32;20081;-59
2023/12/09 12:05:38;;;;;;;0.62;0.62;;;5.40;99.90;;;;;;4432064;32;20065;-59
2023/12/09 12:08:04;;;;;;;3.60;0.90;;;5.50;99.90;;;;;;4431687;32;20081;-59
2023/12/09 12:10:30;;;;;;;0.80;0.80;;;5.50;99.90;;;;;;4432812;32;20053;-59
2023/12/09 12:12:56;;;;;;;5.37;3.05;;;5.40;99.90;;;;;;4430875;32;20069;-60
2023/12/09 12:15:22;;;;;;;1.33;1.17;;;5.50;99.90;;;;;;4430744;32;20120;-59
2023/12/09 12:17:48;;;;;;;0.50;0.50;;;5.50;99.90;;;;;;4429021;32;20073;-60
2023/12/09 12:20:14;;;;;;;2.22;1.33;;;5.60;99.90;;;;;;4427734;32;20073;-59
2023/12/09 12:22:40;;;;;;;0.55;0.55;;;5.70;99.90;;;;;;4432000;32;20394;-59
2023/12/09 12:25:08;;;;;;;0.40;0.40;;;5.70;99.90;;;;;;4419808;32;20057;-59
2023/12/09 12:27:34;;;;;;;6.82;1.73;;;5.70;99.90;;;;;;4403392;32;20708;-60
2023/12/09 12:30:00;;;;;;;4.72;0.57;;;5.70;99.90;;;;;;4431936;32;20098;-60
2023/12/09 12:32:25;;;;;;;3.03;1.02;;;5.70;99.90;;;;;;4427998;32;20077;-60
2023/12/09 12:34:51;;;;;;;1.55;0.88;;;5.70;99.90;;;;;;4430863;32;20078;-59
2023/12/09 12:37:18;;;;;;;0.35;0.35;;;5.80;99.90;;;;;;4429501;32;20074;-59
2023/12/09 12:39:43;;;;;;;0.57;0.40;;;5.80;99.90;;;;;;4431673;32;20076;-60
2023/12/09 12:42:09;;;;;;;1.45;0.77;;;5.90;99.90;;;;;;4429675;32;20093;-59
2023/12/09 12:44:35;;;;;;;0.55;0.55;;;5.80;99.90;;;;;;4425812;32;20077;-60
2023/12/09 12:47:01;;;;;;;0.30;0.30;;;5.90;99.90;;;;;;4413002;32;20077;-61
2023/12/09 12:49:26;;;;;;;0.50;0.50;;;5.80;99.90;;;;;;4432724;32;20159;-60
2023/12/09 12:51:53;;;;;;;0.70;0.70;;;5.70;99.90;;;;;;4429277;32;20085;-61
2023/12/09 12:54:18;;;;;;;1.65;1.30;;;5.60;99.90;;;;;;4433269;32;20127;-62